createdAt,value
2019-06-08T00:01:42.601Z,2.00
2019-06-08T00:04:12.853Z,2.00
2019-06-08T00:06:40.981Z,2.03
2019-06-08T00:09:09.357Z,2.30
2019-06-08T00:11:37.700Z,2.10
2019-06-08T00:14:05.992Z,1.90
2019-06-08T00:16:34.267Z,1.83
2019-06-08T00:19:02.567Z,2.03
2019-06-08T00:21:30.849Z,1.93
2019-06-08T00:23:59.221Z,2.30
2019-06-08T00:26:27.499Z,2.00
2019-06-08T00:28:55.779Z,1.83
2019-06-08T00:31:24.152Z,1.60
2019-06-08T00:33:52.460Z,1.80
2019-06-08T00:36:20.924Z,2.10
2019-06-08T00:38:49.803Z,2.30
2019-06-08T00:41:20.245Z,2.10
2019-06-08T00:43:48.107Z,2.00
2019-06-08T00:46:17.234Z,2.00
2019-06-08T00:48:45.546Z,2.30
2019-06-08T00:51:13.824Z,2.40
2019-06-08T00:53:42.121Z,2.50
2019-06-08T00:56:10.476Z,1.90
2019-06-08T00:58:38.854Z,1.90
2019-06-08T01:01:07.208Z,1.93
2019-06-08T01:03:35.604Z,1.80
2019-06-08T01:06:04.005Z,1.77
2019-06-08T01:08:32.310Z,1.90
2019-06-08T01:11:00.612Z,1.80
2019-06-08T01:13:29.042Z,1.97
2019-06-08T01:15:57.338Z,1.80
2019-06-08T01:18:25.863Z,2.00
2019-06-08T01:20:54.305Z,1.90
2019-06-08T01:23:23.492Z,2.00
2019-06-08T01:25:51.952Z,1.70
2019-06-08T01:28:20.295Z,1.80
2019-06-08T01:30:48.599Z,1.70
2019-06-08T01:33:16.877Z,1.80
2019-06-08T01:35:45.179Z,1.80
2019-06-08T01:38:13.459Z,1.80
2019-06-08T01:40:41.828Z,1.50
2019-06-08T01:43:10.203Z,1.60
2019-06-08T01:45:38.564Z,2.00
2019-06-08T01:48:19.560Z,1.80
2019-06-08T01:50:37.062Z,1.60
2019-06-08T01:53:05.409Z,1.47
2019-06-08T01:55:33.763Z,1.80
2019-06-08T01:58:02.066Z,1.70
2019-06-08T02:00:36.919Z,1.63
2019-06-08T02:03:00.448Z,1.60
2019-06-08T02:05:28.810Z,1.60
2019-06-08T02:07:58.792Z,1.30
2019-06-08T02:10:28.694Z,1.60
2019-06-08T02:12:57.258Z,1.40
2019-06-08T02:15:27.085Z,1.60
2019-06-08T02:17:55.602Z,1.53
2019-06-08T02:20:23.990Z,1.60
2019-06-08T02:22:52.361Z,1.37
2019-06-08T02:25:29.387Z,1.60
2019-06-08T02:27:57.960Z,1.50
2019-06-08T02:30:30.559Z,1.40
2019-06-08T02:32:59.275Z,1.30
2019-06-08T02:35:27.948Z,1.40
2019-06-08T02:37:56.322Z,1.50
2019-06-08T02:40:24.603Z,1.50
2019-06-08T02:42:52.970Z,1.50
2019-06-08T02:45:21.323Z,1.43
2019-06-08T02:47:49.693Z,1.43
2019-06-08T02:50:21.299Z,1.40
2019-06-08T02:52:49.589Z,1.50
2019-06-08T02:55:17.941Z,1.20
2019-06-08T02:57:46.328Z,1.20
2019-06-08T03:00:14.598Z,1.30
2019-06-08T03:02:44.531Z,1.10
2019-06-08T03:05:12.889Z,1.30
2019-06-08T03:07:42.542Z,1.20
2019-06-08T03:10:11.045Z,1.40
2019-06-08T03:12:41.663Z,1.20
2019-06-08T03:15:09.412Z,1.30
2019-06-08T03:17:37.792Z,1.60
2019-06-08T03:20:07.002Z,1.37
2019-06-08T03:22:37.144Z,1.30
2019-06-08T03:25:06.030Z,1.10
2019-06-08T03:27:34.915Z,1.50
2019-06-08T03:30:16.211Z,1.27
2019-06-08T03:32:44.679Z,1.40
2019-06-08T03:35:07.260Z,1.30
2019-06-08T03:37:35.790Z,1.20
2019-06-08T03:40:05.447Z,1.37
2019-06-08T03:42:33.747Z,1.40
2019-06-08T03:45:02.108Z,1.80
2019-06-08T03:47:30.484Z,1.40
2019-06-08T03:49:58.777Z,1.37
2019-06-08T03:52:27.158Z,1.33
2019-06-08T03:54:55.497Z,1.20
2019-06-08T03:57:23.941Z,1.37
2019-06-08T03:59:52.289Z,1.30
2019-06-08T04:02:20.628Z,1.50
2019-06-08T04:04:49.977Z,1.30
2019-06-08T04:07:18.502Z,1.33
2019-06-08T04:09:46.790Z,1.27
2019-06-08T04:12:15.146Z,1.10
2019-06-08T04:14:44.565Z,1.23
2019-06-08T04:17:13.533Z,1.30
2019-06-08T04:20:05.458Z,1.30
2019-06-08T04:22:11.900Z,1.40
2019-06-08T04:24:40.252Z,1.13
2019-06-08T04:27:08.766Z,1.20
2019-06-08T04:29:37.667Z,0.97
2019-06-08T04:32:06.092Z,1.40
2019-06-08T04:34:34.394Z,1.20
2019-06-08T04:37:02.743Z,1.07
2019-06-08T04:39:31.055Z,1.00
2019-06-08T04:41:59.409Z,1.30
2019-06-08T04:44:27.933Z,1.10
2019-06-08T04:46:56.364Z,1.33
2019-06-08T04:49:24.715Z,0.97
2019-06-08T04:51:53.017Z,1.20
2019-06-08T04:54:21.401Z,1.10
2019-06-08T04:56:49.809Z,1.07
2019-06-08T04:59:18.154Z,1.20
2019-06-08T05:01:47.111Z,1.10
2019-06-08T05:04:15.731Z,0.90
2019-06-08T05:06:45.213Z,1.10
2019-06-08T05:09:13.567Z,1.10
2019-06-08T05:11:43.145Z,1.30
2019-06-08T05:14:11.623Z,1.20
2019-06-08T05:16:41.267Z,1.27
2019-06-08T05:19:09.738Z,1.30
2019-06-08T05:21:39.413Z,1.10
2019-06-08T05:24:07.992Z,1.10
2019-06-08T05:26:36.333Z,1.17
2019-06-08T05:29:04.784Z,1.10
2019-06-08T05:31:33.138Z,1.10
2019-06-08T05:34:01.584Z,1.30
2019-06-08T05:36:32.461Z,1.10
2019-06-08T05:39:01.032Z,1.40
2019-06-08T05:41:29.403Z,1.13
2019-06-08T05:43:57.807Z,1.20
2019-06-08T05:46:26.116Z,1.07
2019-06-08T05:48:54.469Z,1.00
2019-06-08T05:51:22.836Z,1.20
2019-06-08T05:53:51.195Z,1.20
2019-06-08T05:56:19.874Z,1.13
2019-06-08T05:58:48.466Z,1.03
2019-06-08T06:01:16.825Z,0.90
2019-06-08T06:03:46.314Z,1.10
2019-06-08T06:06:14.885Z,1.00
2019-06-08T06:08:43.217Z,1.00
2019-06-08T06:11:13.124Z,1.03
2019-06-08T06:13:42.653Z,1.30
2019-06-08T06:16:11.172Z,1.10
2019-06-08T06:18:40.880Z,1.00
2019-06-08T06:21:11.872Z,0.90
2019-06-08T06:23:39.400Z,1.10
2019-06-08T06:26:08.217Z,1.10
2019-06-08T06:28:36.494Z,1.20
2019-06-08T06:31:04.866Z,1.10
2019-06-08T06:33:33.230Z,1.50
2019-06-08T06:36:01.619Z,1.00
2019-06-08T06:38:29.973Z,1.30
2019-06-08T06:40:58.328Z,1.20
2019-06-08T06:43:26.690Z,1.20
2019-06-08T06:45:55.045Z,1.10
2019-06-08T06:48:23.776Z,1.23
2019-06-08T06:50:52.575Z,1.40
2019-06-08T06:53:21.094Z,1.20
2019-06-08T06:55:49.456Z,1.20
2019-06-08T06:58:17.846Z,1.13
2019-06-08T07:00:47.427Z,1.23
2019-06-08T07:03:16.046Z,1.20
2019-06-08T07:05:45.674Z,1.20
2019-06-08T07:08:14.148Z,1.30
2019-06-08T07:10:42.527Z,1.20
2019-06-08T07:13:10.870Z,1.00
2019-06-08T07:15:41.802Z,1.13
2019-06-08T07:18:09.301Z,1.27
2019-06-08T07:20:37.864Z,1.40
2019-06-08T07:23:06.191Z,1.27
2019-06-08T07:25:34.704Z,1.10
2019-06-08T07:28:03.049Z,1.30
2019-06-08T07:30:31.403Z,1.20
2019-06-08T07:32:59.686Z,1.00
2019-06-08T07:35:30.147Z,1.17
2019-06-08T07:38:03.061Z,1.47
2019-06-08T07:40:34.463Z,1.00
2019-06-08T07:43:06.929Z,1.20
2019-06-08T07:45:36.013Z,1.40
2019-06-08T07:48:05.571Z,1.40
2019-06-08T07:50:36.586Z,1.40
2019-06-08T07:53:06.121Z,1.27
2019-06-08T07:55:34.913Z,1.30
2019-06-08T07:58:03.327Z,1.13
2019-06-08T08:00:31.751Z,1.27
2019-06-08T08:03:00.102Z,1.23
2019-06-08T08:05:28.390Z,1.20
2019-06-08T08:07:56.966Z,1.20
2019-06-08T08:10:25.520Z,1.10
2019-06-08T08:12:54.739Z,1.07
2019-06-08T08:15:23.116Z,1.10
2019-06-08T08:17:52.606Z,1.13
2019-06-08T08:20:22.514Z,1.10
2019-06-08T08:22:56.543Z,1.70
2019-06-08T08:25:22.179Z,4.43
2019-06-08T08:27:51.990Z,6.50
2019-06-08T08:30:21.799Z,9.10
2019-06-08T08:32:52.571Z,10.83
2019-06-08T08:35:22.242Z,9.57
2019-06-08T08:37:56.311Z,9.00
2019-06-08T08:40:21.328Z,8.63
2019-06-08T08:42:50.675Z,8.53
2019-06-08T08:45:19.738Z,9.43
2019-06-08T08:47:48.478Z,13.23
2019-06-08T08:50:18.353Z,14.17
2019-06-08T08:52:47.716Z,13.83
2019-06-08T08:55:20.194Z,14.40
2019-06-08T08:57:48.439Z,14.20
2019-06-08T09:00:18.097Z,13.03
2019-06-08T09:02:48.902Z,12.63
2019-06-08T09:05:18.165Z,11.63
2019-06-08T09:07:48.219Z,11.80
2019-06-08T09:10:18.357Z,11.77
2019-06-08T09:12:48.581Z,16.00
2019-06-08T09:15:19.008Z,24.33
2019-06-08T09:17:48.280Z,31.73
2019-06-08T09:20:19.281Z,35.80
2019-06-08T09:22:56.513Z,36.03
2019-06-08T09:25:18.168Z,36.57
2019-06-08T09:27:48.172Z,36.70
2019-06-08T09:30:18.316Z,34.40
2019-06-08T09:32:47.748Z,33.00
2019-06-08T09:35:20.887Z,32.80
2019-06-08T09:37:48.418Z,30.10
2019-06-08T09:40:16.481Z,26.87
2019-06-08T09:42:44.843Z,26.27
2019-06-08T09:45:13.153Z,23.73
2019-06-08T09:47:41.599Z,22.73
2019-06-08T09:50:09.954Z,21.50
2019-06-08T09:52:40.898Z,19.23
2019-06-08T09:55:09.224Z,17.33
2019-06-08T09:57:38.467Z,14.50
2019-06-08T10:00:15.362Z,13.43
2019-06-08T10:02:37.693Z,12.30
2019-06-08T10:05:06.404Z,11.33
2019-06-08T10:07:35.135Z,11.07
2019-06-08T10:10:06.220Z,10.10
2019-06-08T10:12:37.722Z,9.57
2019-06-08T10:15:08.166Z,8.30
2019-06-08T10:17:37.757Z,8.77
2019-06-08T10:20:09.846Z,8.03
2019-06-08T10:22:36.795Z,6.40
2019-06-08T10:25:11.040Z,6.67
2019-06-08T10:27:38.605Z,6.43
2019-06-08T10:30:10.128Z,6.10
2019-06-08T10:32:38.828Z,5.43
2019-06-08T10:35:10.649Z,4.87
2019-06-08T10:37:39.183Z,5.70
2019-06-08T10:40:07.943Z,4.53
2019-06-08T10:42:39.797Z,4.50
2019-06-08T10:45:10.422Z,4.80
2019-06-08T10:47:37.916Z,4.70
2019-06-08T10:50:11.193Z,4.57
2019-06-08T10:52:39.100Z,4.30
2019-06-08T10:55:10.397Z,4.67
2019-06-08T10:57:37.518Z,4.17
2019-06-08T11:00:18.265Z,3.93
2019-06-08T11:02:40.669Z,4.00
2019-06-08T11:05:13.602Z,3.73
2019-06-08T11:07:39.164Z,3.80
2019-06-08T11:10:11.665Z,3.77
2019-06-08T11:12:37.752Z,4.47
2019-06-08T11:15:09.289Z,4.10
2019-06-08T11:17:37.888Z,4.20
2019-06-08T11:20:11.358Z,3.87
2019-06-08T11:22:37.823Z,3.73
2019-06-08T11:25:15.244Z,3.90
2019-06-08T11:27:38.777Z,4.13
2019-06-08T11:30:17.404Z,4.00
2019-06-08T11:32:38.324Z,3.63
2019-06-08T11:35:10.672Z,4.10
2019-06-08T11:37:38.714Z,4.17
2019-06-08T11:40:11.006Z,3.57
2019-06-08T11:42:38.761Z,4.43
2019-06-08T11:45:12.613Z,3.77
2019-06-08T11:47:40.280Z,3.43
2019-06-08T11:50:13.126Z,3.37
2019-06-08T11:52:40.049Z,3.80
2019-06-08T11:55:11.193Z,3.50
2019-06-08T11:57:40.379Z,3.60
2019-06-08T12:00:18.448Z,3.33
2019-06-08T12:02:41.412Z,3.23
2019-06-08T12:05:11.257Z,3.17
2019-06-08T12:07:39.081Z,3.23
2019-06-08T12:10:09.654Z,3.60
2019-06-08T12:12:38.493Z,3.23
2019-06-08T12:15:10.045Z,3.27
2019-06-08T12:17:37.379Z,3.50
2019-06-08T12:20:08.074Z,3.33
2019-06-08T12:22:37.759Z,3.50
2019-06-08T12:25:08.052Z,3.40
2019-06-08T12:27:39.990Z,3.20
2019-06-08T12:30:12.659Z,3.10
2019-06-08T12:32:36.795Z,2.90
2019-06-08T12:35:07.851Z,2.83
2019-06-08T12:37:35.871Z,2.70
2019-06-08T12:40:05.326Z,3.00
2019-06-08T12:42:33.697Z,2.80
2019-06-08T12:45:01.979Z,2.83
2019-06-08T12:47:30.291Z,2.90
2019-06-08T12:49:58.699Z,2.97
2019-06-08T12:52:29.481Z,3.10
2019-06-08T12:55:06.103Z,2.93
2019-06-08T12:57:28.502Z,2.80
2019-06-08T13:00:00.073Z,2.83
2019-06-08T13:02:28.353Z,3.13
2019-06-08T13:04:56.727Z,2.70
2019-06-08T13:07:25.071Z,2.77
2019-06-08T13:09:53.755Z,2.90
2019-06-08T13:12:22.332Z,2.50
2019-06-08T13:14:50.762Z,2.80
2019-06-08T13:17:20.967Z,2.70
2019-06-08T13:19:49.187Z,2.77
2019-06-08T13:22:23.899Z,2.50
2019-06-08T13:24:47.902Z,2.77
2019-06-08T13:27:19.178Z,2.53
2019-06-08T13:29:48.308Z,2.77
2019-06-08T13:32:18.527Z,2.73
2019-06-08T13:34:47.340Z,2.30
2019-06-08T13:37:18.923Z,2.30
2019-06-08T13:39:46.498Z,2.30
2019-06-08T13:42:15.239Z,2.40
2019-06-08T13:44:44.244Z,2.10
2019-06-08T13:47:12.969Z,2.40
2019-06-08T13:49:42.608Z,2.23
2019-06-08T13:52:10.970Z,2.30
2019-06-08T13:54:39.267Z,2.53
2019-06-08T13:57:08.538Z,1.97
2019-06-08T13:59:39.036Z,2.17
2019-06-08T14:02:07.567Z,2.13
2019-06-08T14:04:39.379Z,2.30
2019-06-08T14:07:07.763Z,2.10
2019-06-08T14:09:38.157Z,2.30
2019-06-08T14:12:07.757Z,2.07
2019-06-08T14:14:39.688Z,2.20
2019-06-08T14:17:08.351Z,2.13
2019-06-08T14:19:38.419Z,2.30
2019-06-08T14:22:10.491Z,2.07
2019-06-08T14:24:37.743Z,2.00
2019-06-08T14:27:08.195Z,2.03
2019-06-08T14:29:36.433Z,2.27
2019-06-08T14:32:04.795Z,2.30
2019-06-08T14:34:33.176Z,2.30
2019-06-08T14:37:01.519Z,1.87
2019-06-08T14:39:31.719Z,2.10
2019-06-08T14:42:24.658Z,2.30
2019-06-08T14:44:49.443Z,2.30
2019-06-08T14:47:18.741Z,2.07
2019-06-08T14:49:48.733Z,2.17
2019-06-08T14:52:20.270Z,2.23
2019-06-08T14:54:48.664Z,1.70
2019-06-08T14:57:17.850Z,1.50
2019-06-08T14:59:50.082Z,2.10
2019-06-08T15:02:19.303Z,2.00
2019-06-08T15:04:48.472Z,2.10
2019-06-08T15:07:20.146Z,2.40
2019-06-08T15:09:47.999Z,2.37
2019-06-08T15:12:17.891Z,2.23
2019-06-08T15:14:47.703Z,2.37
2019-06-08T15:17:16.205Z,2.20
2019-06-08T15:19:44.626Z,2.57
2019-06-08T15:22:12.979Z,2.57
2019-06-08T15:24:41.544Z,2.27
2019-06-08T15:27:09.884Z,2.40
2019-06-08T15:29:38.162Z,2.50
2019-06-08T15:32:08.085Z,2.53
2019-06-08T15:34:38.205Z,2.07
2019-06-08T15:37:08.993Z,2.30
2019-06-08T15:39:38.641Z,2.33
2019-06-08T15:42:08.240Z,2.20
2019-06-08T15:44:38.355Z,2.00
2019-06-08T15:47:08.231Z,2.30
2019-06-08T15:49:38.996Z,1.97
2019-06-08T15:52:06.884Z,1.97
2019-06-08T15:54:38.512Z,2.03
2019-06-08T15:57:05.217Z,2.00
2019-06-08T15:59:39.007Z,2.03
2019-06-08T16:02:03.530Z,2.03
2019-06-08T16:04:31.881Z,2.00
2019-06-08T16:07:00.276Z,1.93
2019-06-08T16:09:28.593Z,2.00
2019-06-08T16:11:59.520Z,1.83
2019-06-08T16:14:28.786Z,1.93
2019-06-08T16:16:57.203Z,1.50
2019-06-08T16:19:25.499Z,2.00
2019-06-08T16:21:53.884Z,2.00
2019-06-08T16:24:22.177Z,1.80
2019-06-08T16:26:53.492Z,1.67
2019-06-08T16:29:20.587Z,1.80
2019-06-08T16:31:48.954Z,2.20
2019-06-08T16:34:17.308Z,1.77
2019-06-08T16:36:45.636Z,1.60
2019-06-08T16:39:14.005Z,2.00
2019-06-08T16:41:42.428Z,1.93
2019-06-08T16:44:10.789Z,1.87
2019-06-08T16:46:39.153Z,2.00
2019-06-08T16:49:07.533Z,1.90
2019-06-08T16:51:35.955Z,1.90
2019-06-08T16:54:04.462Z,1.60
2019-06-08T16:56:34.021Z,1.37
2019-06-08T16:59:02.624Z,1.67
2019-06-08T17:01:31.004Z,2.00
2019-06-08T17:03:59.302Z,1.60
2019-06-08T17:06:29.005Z,1.60
2019-06-08T17:08:57.445Z,1.50
2019-06-08T17:11:25.757Z,1.63
2019-06-08T17:13:54.058Z,1.50
2019-06-08T17:16:22.340Z,1.37
2019-06-08T17:18:50.638Z,1.50
2019-06-08T17:21:18.993Z,1.53
2019-06-08T17:23:47.526Z,1.57
2019-06-08T17:26:15.826Z,1.50
2019-06-08T17:28:44.196Z,1.70
2019-06-08T17:31:12.505Z,1.33
2019-06-08T17:33:41.474Z,1.43
2019-06-08T17:36:09.808Z,1.40
2019-06-08T17:38:39.358Z,1.27
2019-06-08T17:41:08.165Z,1.20
2019-06-08T17:43:36.477Z,1.30
2019-06-08T17:46:04.759Z,1.50
2019-06-08T17:48:34.605Z,1.30
2019-06-08T17:51:03.274Z,1.50
2019-06-08T17:53:32.699Z,1.17
2019-06-08T17:56:01.121Z,1.30
2019-06-08T17:58:29.427Z,1.20
2019-06-08T18:00:57.719Z,1.30
2019-06-08T18:03:27.914Z,1.43
2019-06-08T18:05:57.995Z,1.10
2019-06-08T18:08:28.210Z,1.10
2019-06-08T18:10:57.576Z,1.40
2019-06-08T18:13:27.282Z,1.23
2019-06-08T18:15:57.630Z,1.50
2019-06-08T18:18:28.127Z,1.10
2019-06-08T18:20:58.014Z,1.20
2019-06-08T18:23:27.819Z,1.10
2019-06-08T18:25:58.059Z,1.30
2019-06-08T18:28:28.133Z,1.20
2019-06-08T18:30:58.041Z,1.00
2019-06-08T18:33:27.034Z,1.10
2019-06-08T18:35:57.674Z,1.13
2019-06-08T18:38:27.288Z,0.90
2019-06-08T18:40:57.379Z,1.30
2019-06-08T18:43:27.559Z,1.27
2019-06-08T18:45:57.568Z,1.20
2019-06-08T18:48:25.485Z,1.13
2019-06-08T18:50:53.863Z,1.20
2019-06-08T18:53:22.282Z,1.07
2019-06-08T18:55:50.733Z,1.43
2019-06-08T18:58:24.659Z,1.10
2019-06-08T19:00:51.429Z,1.20
2019-06-08T19:03:19.214Z,1.20
2019-06-08T19:05:49.964Z,1.30
2019-06-08T19:08:18.013Z,1.13
2019-06-08T19:10:48.402Z,1.33
2019-06-08T19:13:18.079Z,1.20
2019-06-08T19:15:52.476Z,1.07
2019-06-08T19:18:17.850Z,1.20
2019-06-08T19:20:47.788Z,1.27
2019-06-08T19:23:20.685Z,1.10
2019-06-08T19:25:48.389Z,1.10
2019-06-08T19:28:17.732Z,1.30
2019-06-08T19:30:50.057Z,1.13
2019-06-08T19:33:17.983Z,1.23
2019-06-08T19:35:49.947Z,1.30
2019-06-08T19:38:18.111Z,1.07
2019-06-08T19:40:46.616Z,1.33
2019-06-08T19:43:15.231Z,1.40
2019-06-08T19:45:44.268Z,1.20
2019-06-08T19:48:13.541Z,1.40
2019-06-08T19:50:42.842Z,1.20
2019-06-08T19:53:11.275Z,1.00
2019-06-08T19:55:39.583Z,1.03
2019-06-08T19:58:08.773Z,1.10
2019-06-08T20:00:39.751Z,1.10
2019-06-08T20:03:07.780Z,1.20
2019-06-08T20:05:37.817Z,1.00
2019-06-08T20:08:08.075Z,1.13
2019-06-08T20:10:36.387Z,1.10
2019-06-08T20:13:04.681Z,0.97
2019-06-08T20:15:32.975Z,1.00
2019-06-08T20:18:01.250Z,1.03
2019-06-08T20:20:29.531Z,1.00
2019-06-08T20:22:58.569Z,1.10
2019-06-08T20:25:27.907Z,1.10
2019-06-08T20:27:58.459Z,1.10
2019-06-08T20:30:28.188Z,1.10
2019-06-08T20:32:57.603Z,1.03
2019-06-08T20:35:28.102Z,0.97
2019-06-08T20:37:57.896Z,1.20
2019-06-08T20:40:27.955Z,1.00
2019-06-08T20:42:57.763Z,0.93
2019-06-08T20:45:28.083Z,1.10
2019-06-08T20:47:58.483Z,0.93
2019-06-08T20:50:27.133Z,1.20
2019-06-08T20:52:57.694Z,1.20
2019-06-08T20:55:28.007Z,1.00
2019-06-08T20:57:57.538Z,1.00
2019-06-08T21:00:25.882Z,1.20
2019-06-08T21:02:54.935Z,1.10
2019-06-08T21:05:24.204Z,1.33
2019-06-08T21:07:54.175Z,1.00
2019-06-08T21:10:24.525Z,1.20
2019-06-08T21:12:54.270Z,0.93
2019-06-08T21:15:23.024Z,1.20
2019-06-08T21:17:52.622Z,1.30
2019-06-08T21:20:21.334Z,1.10
2019-06-08T21:22:52.354Z,1.10
2019-06-08T21:25:19.712Z,1.23
2019-06-08T21:27:48.603Z,1.20
2019-06-08T21:30:21.526Z,1.40
2019-06-08T21:32:51.676Z,1.20
2019-06-08T21:35:18.485Z,1.13
2019-06-08T21:37:50.720Z,1.37
2019-06-08T21:40:17.605Z,1.07
2019-06-08T21:42:48.857Z,1.10
2019-06-08T21:45:18.710Z,1.10
2019-06-08T21:47:48.565Z,1.20
2019-06-08T21:50:18.489Z,1.47
2019-06-08T21:52:48.653Z,1.40
2019-06-08T21:55:17.766Z,1.30
2019-06-08T21:57:49.513Z,1.10
2019-06-08T22:00:35.744Z,1.43
2019-06-08T22:02:47.958Z,1.07
2019-06-08T22:05:16.355Z,1.40
2019-06-08T22:07:47.046Z,1.40
2019-06-08T22:10:14.695Z,1.30
2019-06-08T22:12:43.047Z,1.20
2019-06-08T22:15:11.327Z,1.03
2019-06-08T22:17:39.632Z,1.30
2019-06-08T22:20:08.296Z,1.20
2019-06-08T22:22:37.801Z,1.10
2019-06-08T22:25:08.231Z,1.30
2019-06-08T22:27:38.231Z,1.20
2019-06-08T22:30:13.366Z,1.00
2019-06-08T22:32:38.463Z,1.30
2019-06-08T22:35:08.057Z,1.50
2019-06-08T22:37:38.029Z,1.30
2019-06-08T22:40:08.193Z,1.27
2019-06-08T22:42:37.434Z,1.40
2019-06-08T22:45:08.226Z,1.30
2019-06-08T22:47:38.810Z,1.47
2019-06-08T22:50:07.899Z,1.10
2019-06-08T22:52:37.523Z,1.30
2019-06-08T22:55:10.318Z,1.40
2019-06-08T22:57:37.737Z,1.43
2019-06-08T23:00:14.532Z,1.40
2019-06-08T23:02:38.447Z,1.30
2019-06-08T23:05:09.108Z,1.40
2019-06-08T23:07:37.516Z,1.30
2019-06-08T23:10:09.023Z,1.23
2019-06-08T23:12:38.140Z,1.33
2019-06-08T23:15:08.454Z,1.40
2019-06-08T23:17:38.687Z,1.30
2019-06-08T23:20:08.621Z,1.13
2019-06-08T23:22:38.454Z,1.40
2019-06-08T23:25:09.341Z,1.30
2019-06-08T23:27:37.920Z,1.30
2019-06-08T23:30:10.308Z,1.30
2019-06-08T23:32:38.587Z,1.60
2019-06-08T23:35:09.178Z,1.10
2019-06-08T23:37:37.454Z,1.23
2019-06-08T23:40:05.924Z,1.33
2019-06-08T23:42:34.207Z,1.10
2019-06-08T23:45:03.770Z,1.20
2019-06-08T23:47:32.149Z,1.40
2019-06-08T23:50:01.998Z,1.20
2019-06-08T23:52:30.519Z,1.20
2019-06-08T23:55:01.010Z,1.20
2019-06-08T23:57:28.810Z,1.10
2019-06-08T23:59:59.377Z,1.20
